createdAt,value
2018-11-26T00:02:11.359Z,89.80
2018-11-26T00:04:39.903Z,89.70
2018-11-26T00:07:08.580Z,88.60
2018-11-26T00:09:37.174Z,89.30
2018-11-26T00:12:05.770Z,89.30
2018-11-26T00:14:34.347Z,89.50
2018-11-26T00:17:02.937Z,89.70
2018-11-26T00:19:31.502Z,89.70
2018-11-26T00:22:00.091Z,89.50
2018-11-26T00:24:28.554Z,89.00
2018-11-26T00:26:57.344Z,89.00
2018-11-26T00:29:25.810Z,89.30
2018-11-26T00:31:54.251Z,89.50
2018-11-26T00:34:22.890Z,89.70
2018-11-26T00:36:51.341Z,89.50
2018-11-26T00:39:20.027Z,89.20
2018-11-26T00:41:48.530Z,89.10
2018-11-26T00:44:16.986Z,89.00
2018-11-26T00:46:45.613Z,89.10
2018-11-26T00:49:14.136Z,89.30
2018-11-26T00:51:42.750Z,89.30
2018-11-26T00:54:11.476Z,89.20
2018-11-26T00:56:40.035Z,89.40
2018-11-26T00:59:08.637Z,89.70
2018-11-26T01:01:37.215Z,90.10
2018-11-26T01:04:06.266Z,90.30
2018-11-26T01:06:34.840Z,90.60
2018-11-26T01:09:03.496Z,90.80
2018-11-26T01:11:32.034Z,90.90
2018-11-26T01:14:00.619Z,90.90
2018-11-26T01:16:29.297Z,90.90
2018-11-26T01:18:57.865Z,90.90
2018-11-26T01:21:26.459Z,90.90
2018-11-26T01:23:55.171Z,90.90
2018-11-26T01:26:23.713Z,90.70
2018-11-26T01:28:52.295Z,90.70
2018-11-26T01:31:20.758Z,90.80
2018-11-26T01:33:49.238Z,90.90
2018-11-26T01:36:17.703Z,91.00
2018-11-26T01:38:46.184Z,90.90
2018-11-26T01:41:14.688Z,90.80
2018-11-26T01:43:43.154Z,90.70
2018-11-26T01:46:11.608Z,90.60
2018-11-26T01:48:40.281Z,90.60
2018-11-26T01:51:08.734Z,90.70
2018-11-26T01:53:37.203Z,90.80
2018-11-26T01:56:06.064Z,90.80
2018-11-26T01:58:34.557Z,90.80
2018-11-26T02:01:03.078Z,90.80
2018-11-26T02:03:31.659Z,90.80
2018-11-26T02:06:00.122Z,90.90
2018-11-26T02:08:28.669Z,90.90
2018-11-26T02:10:57.214Z,90.90
2018-11-26T02:13:25.686Z,90.90
2018-11-26T02:15:54.256Z,90.90
2018-11-26T02:18:23.000Z,90.90
2018-11-26T02:20:51.575Z,90.80
2018-11-26T02:23:20.135Z,90.90
2018-11-26T02:25:48.659Z,90.70
2018-11-26T02:28:17.109Z,90.80
2018-11-26T02:30:45.608Z,90.70
2018-11-26T02:33:14.105Z,90.70
2018-11-26T02:35:42.684Z,90.60
2018-11-26T02:38:11.297Z,90.50
2018-11-26T02:40:39.825Z,90.30
2018-11-26T02:43:08.442Z,90.20
2018-11-26T02:45:36.956Z,90.10
2018-11-26T02:48:05.721Z,90.00
2018-11-26T02:50:34.178Z,90.00
2018-11-26T02:53:02.928Z,89.90
2018-11-26T02:55:31.443Z,89.90
2018-11-26T02:57:59.994Z,89.40
2018-11-26T03:00:28.649Z,89.40
2018-11-26T03:02:57.449Z,89.60
2018-11-26T03:05:27.036Z,90.00
2018-11-26T03:07:55.525Z,90.10
2018-11-26T03:10:24.161Z,90.20
2018-11-26T03:12:52.695Z,90.30
2018-11-26T03:15:21.162Z,90.40
2018-11-26T03:17:49.777Z,90.30
2018-11-26T03:20:18.542Z,90.50
2018-11-26T03:22:46.987Z,90.50
2018-11-26T03:25:15.486Z,90.50
2018-11-26T03:27:43.950Z,90.50
2018-11-26T03:30:13.933Z,90.40
2018-11-26T03:32:42.661Z,90.40
2018-11-26T03:35:11.248Z,90.10
2018-11-26T03:37:39.867Z,90.20
2018-11-26T03:40:10.811Z,89.60
2018-11-26T03:42:39.502Z,89.70
2018-11-26T03:45:11.621Z,90.00
2018-11-26T03:47:40.234Z,90.00
2018-11-26T03:50:09.358Z,90.10
2018-11-26T03:52:37.839Z,90.20
2018-11-26T03:55:07.829Z,90.10
2018-11-26T03:57:36.318Z,90.00
2018-11-26T04:00:06.886Z,90.00
2018-11-26T04:02:35.427Z,90.20
2018-11-26T04:05:03.999Z,90.20
2018-11-26T04:07:32.477Z,90.20
2018-11-26T04:10:01.093Z,90.30
2018-11-26T04:12:29.552Z,90.30
2018-11-26T04:14:58.136Z,90.40
2018-11-26T04:17:26.995Z,90.40
2018-11-26T04:19:55.700Z,90.40
2018-11-26T04:22:24.189Z,90.40
2018-11-26T04:24:52.980Z,90.50
2018-11-26T04:27:21.474Z,90.50
2018-11-26T04:29:49.966Z,90.50
2018-11-26T04:32:18.485Z,90.50
2018-11-26T04:34:47.046Z,90.50
2018-11-26T04:37:15.778Z,90.60
2018-11-26T04:39:44.387Z,90.50
2018-11-26T04:42:12.998Z,90.60
2018-11-26T04:44:41.500Z,90.60
2018-11-26T04:47:10.042Z,90.50
2018-11-26T04:49:38.534Z,90.50
2018-11-26T04:52:07.060Z,90.40
2018-11-26T04:54:35.772Z,90.40
2018-11-26T04:57:04.281Z,90.30
2018-11-26T04:59:32.862Z,90.10
2018-11-26T05:02:01.482Z,90.00
2018-11-26T05:04:29.907Z,90.00
2018-11-26T05:06:58.353Z,89.90
2018-11-26T05:09:27.111Z,89.90
2018-11-26T05:11:55.707Z,89.90
2018-11-26T05:14:24.131Z,89.90
2018-11-26T05:16:52.867Z,89.70
2018-11-26T05:19:21.311Z,89.60
2018-11-26T05:21:49.889Z,89.60
2018-11-26T05:24:18.542Z,89.40
2018-11-26T05:26:47.141Z,89.30
2018-11-26T05:29:15.607Z,89.30
2018-11-26T05:31:44.099Z,89.10
2018-11-26T05:34:12.577Z,88.90
2018-11-26T05:36:41.050Z,88.80
2018-11-26T05:39:09.707Z,88.70
2018-11-26T05:41:38.388Z,88.50
2018-11-26T05:44:07.089Z,88.70
2018-11-26T05:46:35.708Z,88.60
2018-11-26T05:49:04.211Z,88.40
2018-11-26T05:51:32.683Z,88.30
2018-11-26T05:54:01.588Z,88.30
2018-11-26T05:56:29.999Z,88.90
2018-11-26T05:58:58.601Z,88.10
2018-11-26T06:01:27.254Z,87.70
2018-11-26T06:03:55.734Z,87.60
2018-11-26T06:06:24.177Z,87.40
2018-11-26T06:08:52.685Z,87.20
2018-11-26T06:11:21.155Z,87.20
2018-11-26T06:13:49.591Z,86.90
2018-11-26T06:16:18.107Z,86.80
2018-11-26T06:18:46.647Z,86.80
2018-11-26T06:21:15.080Z,86.60
2018-11-26T06:23:43.626Z,86.50
2018-11-26T06:26:12.106Z,86.50
2018-11-26T06:28:40.602Z,86.40
2018-11-26T06:31:09.110Z,86.40
2018-11-26T06:33:37.668Z,86.40
2018-11-26T06:36:06.534Z,86.40
2018-11-26T06:38:35.061Z,86.30
2018-11-26T06:41:03.671Z,86.20
2018-11-26T06:43:32.247Z,86.20
2018-11-26T06:46:00.791Z,86.00
2018-11-26T06:48:29.329Z,86.10
2018-11-26T06:50:58.008Z,86.20
2018-11-26T06:53:26.573Z,86.20
2018-11-26T06:55:55.322Z,86.20
2018-11-26T06:58:23.944Z,86.10
2018-11-26T07:00:52.423Z,86.10
2018-11-26T07:03:21.020Z,86.20
2018-11-26T07:05:49.494Z,86.10
2018-11-26T07:08:18.138Z,86.00
2018-11-26T07:10:46.701Z,86.00
2018-11-26T07:13:15.288Z,86.00
2018-11-26T07:15:43.815Z,86.10
2018-11-26T07:18:12.403Z,86.10
2018-11-26T07:20:40.888Z,85.00
2018-11-26T07:23:09.427Z,83.10
2018-11-26T07:25:37.993Z,83.90
2018-11-26T07:28:08.109Z,84.70
2018-11-26T07:30:36.701Z,83.70
2018-11-26T07:33:05.319Z,84.40
2018-11-26T07:35:33.822Z,85.30
2018-11-26T07:38:02.357Z,85.80
2018-11-26T07:40:30.966Z,86.10
2018-11-26T07:43:03.342Z,86.50
2018-11-26T07:45:31.909Z,86.90
2018-11-26T07:48:00.501Z,87.20
2018-11-26T07:50:29.062Z,87.60
2018-11-26T07:52:57.700Z,88.10
2018-11-26T07:55:26.321Z,88.50
2018-11-26T07:57:54.853Z,88.70
2018-11-26T08:00:23.344Z,88.80
2018-11-26T08:02:52.377Z,89.10
2018-11-26T08:05:21.932Z,89.30
2018-11-26T08:07:50.538Z,89.30
2018-11-26T08:10:20.175Z,89.50
2018-11-26T08:12:49.893Z,89.50
2018-11-26T08:15:20.362Z,89.50
2018-11-26T08:17:48.922Z,89.50
2018-11-26T08:20:17.773Z,89.90
2018-11-26T08:22:46.570Z,89.90
2018-11-26T08:25:16.896Z,89.70
2018-11-26T08:27:46.542Z,90.00
2018-11-26T08:30:16.731Z,90.20
2018-11-26T08:32:48.551Z,90.20
2018-11-26T08:35:17.588Z,90.30
2018-11-26T08:37:51.619Z,90.30
2018-11-26T08:40:25.486Z,90.70
2018-11-26T08:43:02.787Z,90.80
2018-11-26T08:45:38.170Z,90.70
2018-11-26T08:48:12.326Z,90.60
2018-11-26T08:50:40.859Z,90.70
2018-11-26T08:53:09.630Z,90.70
2018-11-26T08:55:38.224Z,90.50
2018-11-26T08:58:07.143Z,90.60
2018-11-26T09:00:35.672Z,90.60
2018-11-26T09:03:10.184Z,90.70
2018-11-26T09:06:12.152Z,90.70
2018-11-26T09:08:40.697Z,90.90
2018-11-26T09:11:09.922Z,90.50
2018-11-26T09:13:38.421Z,90.50
2018-11-26T09:16:07.121Z,90.40
2018-11-26T09:18:35.650Z,90.40
2018-11-26T09:21:04.121Z,90.30
2018-11-26T09:23:32.809Z,90.00
2018-11-26T09:26:01.267Z,89.50
2018-11-26T09:28:29.945Z,89.40
2018-11-26T09:30:58.589Z,89.90
2018-11-26T09:33:27.058Z,90.00
2018-11-26T09:35:55.547Z,90.00
2018-11-26T09:38:24.190Z,89.40
2018-11-26T09:40:52.661Z,89.40
2018-11-26T09:43:21.274Z,89.20
2018-11-26T09:45:49.874Z,89.50
2018-11-26T09:48:18.495Z,89.90
2018-11-26T09:50:47.133Z,89.90
2018-11-26T09:53:15.756Z,89.30
2018-11-26T09:55:44.427Z,87.70
2018-11-26T09:58:12.963Z,87.40
2018-11-26T10:00:41.773Z,88.20
2018-11-26T10:03:10.278Z,88.20
2018-11-26T10:05:39.757Z,88.40
2018-11-26T10:08:09.241Z,88.50
2018-11-26T10:10:38.801Z,87.80
2018-11-26T10:13:08.379Z,87.30
2018-11-26T10:15:37.760Z,87.10
2018-11-26T10:18:07.072Z,86.90
2018-11-26T10:20:36.635Z,86.50
2018-11-26T10:23:06.970Z,86.50
2018-11-26T10:25:36.669Z,86.90
2018-11-26T10:28:06.378Z,87.30
2018-11-26T10:30:35.749Z,88.00
2018-11-26T10:33:04.268Z,87.30
2018-11-26T10:35:33.099Z,87.90
2018-11-26T10:38:01.868Z,88.00
2018-11-26T10:40:30.897Z,87.90
2018-11-26T10:42:59.571Z,86.90
2018-11-26T10:45:28.159Z,86.80
2018-11-26T10:47:57.015Z,86.50
2018-11-26T10:50:27.010Z,86.20
2018-11-26T10:52:56.893Z,85.50
2018-11-26T10:55:31.282Z,83.70
2018-11-26T10:57:59.942Z,82.60
2018-11-26T11:00:33.660Z,82.80
2018-11-26T11:03:02.274Z,82.90
2018-11-26T11:05:30.902Z,82.40
2018-11-26T11:07:59.512Z,82.10
2018-11-26T11:10:32.586Z,80.90
2018-11-26T11:13:01.334Z,79.10
2018-11-26T11:15:30.161Z,77.00
2018-11-26T11:17:58.923Z,77.70
2018-11-26T11:20:28.566Z,78.50
2018-11-26T11:22:57.149Z,79.10
2018-11-26T11:25:26.232Z,80.70
2018-11-26T11:27:54.402Z,79.60
2018-11-26T11:30:24.739Z,80.00
2018-11-26T11:32:53.421Z,80.70
2018-11-26T11:35:22.186Z,80.30
2018-11-26T11:37:51.442Z,78.90
2018-11-26T11:40:25.368Z,78.80
2018-11-26T11:42:54.080Z,78.70
2018-11-26T11:45:23.148Z,78.90
2018-11-26T11:47:51.837Z,78.70
2018-11-26T11:50:21.043Z,79.10
2018-11-26T11:52:50.253Z,78.40
2018-11-26T11:55:20.066Z,78.90
2018-11-26T11:57:48.623Z,78.90
2018-11-26T12:00:31.764Z,78.80
2018-11-26T12:03:01.218Z,78.90
2018-11-26T12:05:29.769Z,78.50
2018-11-26T12:07:58.457Z,78.80
2018-11-26T12:10:26.988Z,79.20
2018-11-26T12:12:55.749Z,79.20
2018-11-26T12:15:24.405Z,79.10
2018-11-26T12:17:52.990Z,79.60
2018-11-26T12:20:21.581Z,80.20
2018-11-26T12:22:50.265Z,80.80
2018-11-26T12:25:20.173Z,81.70
2018-11-26T12:27:48.722Z,82.10
2018-11-26T12:30:20.322Z,82.50
2018-11-26T12:32:48.924Z,83.40
2018-11-26T12:35:17.658Z,81.90
2018-11-26T12:37:46.358Z,79.50
2018-11-26T12:40:18.202Z,78.00
2018-11-26T12:42:48.015Z,77.70
2018-11-26T12:45:20.979Z,77.00
2018-11-26T12:47:49.715Z,76.60
2018-11-26T12:50:18.325Z,75.60
2018-11-26T12:52:47.016Z,76.20
2018-11-26T12:55:18.844Z,76.30
2018-11-26T12:57:48.469Z,76.60
2018-11-26T13:00:22.304Z,76.80
2018-11-26T13:02:58.499Z,76.40
2018-11-26T13:05:27.055Z,76.20
2018-11-26T13:07:55.632Z,76.30
2018-11-26T13:10:24.653Z,75.80
2018-11-26T13:12:53.510Z,75.60
2018-11-26T13:15:24.415Z,76.00
2018-11-26T13:17:53.211Z,75.30
2018-11-26T13:20:23.404Z,75.70
2018-11-26T13:22:52.503Z,75.70
2018-11-26T13:25:22.420Z,76.60
2018-11-26T13:27:53.251Z,77.30
2018-11-26T13:30:23.344Z,76.60
2018-11-26T13:32:53.146Z,76.00
2018-11-26T13:35:21.714Z,76.40
2018-11-26T13:37:50.274Z,76.50
2018-11-26T13:40:19.357Z,76.50
2018-11-26T13:42:48.145Z,77.30
2018-11-26T13:45:18.130Z,76.80
2018-11-26T13:47:46.974Z,76.70
2018-11-26T13:50:19.531Z,76.90
2018-11-26T13:52:48.254Z,76.50
2018-11-26T13:55:16.882Z,77.30
2018-11-26T13:57:45.417Z,77.70
2018-11-26T14:00:16.738Z,77.60
2018-11-26T14:02:45.235Z,76.20
2018-11-26T14:05:15.819Z,76.00
2018-11-26T14:14:42.529Z,76.10
2018-11-26T14:17:11.029Z,77.10
2018-11-26T14:19:39.511Z,78.30
2018-11-26T14:22:08.038Z,78.80
2018-11-26T14:24:36.545Z,78.90
2018-11-26T14:27:05.403Z,78.90
2018-11-26T14:29:34.027Z,79.10
2018-11-26T14:32:02.503Z,79.20
2018-11-26T14:34:31.222Z,79.30
2018-11-26T14:36:59.769Z,79.30
2018-11-26T14:39:28.243Z,79.30
2018-11-26T14:41:56.747Z,79.10
2018-11-26T14:44:25.279Z,79.20
2018-11-26T14:46:53.792Z,79.50
2018-11-26T14:49:22.275Z,79.60
2018-11-26T14:51:50.818Z,79.70
2018-11-26T14:54:19.297Z,79.70
2018-11-26T14:56:47.907Z,79.80
2018-11-26T14:59:16.789Z,79.70
2018-11-26T15:01:45.257Z,79.80
2018-11-26T15:04:13.906Z,79.90
2018-11-26T15:06:42.621Z,79.90
2018-11-26T15:09:11.231Z,80.10
2018-11-26T15:11:39.797Z,80.20
2018-11-26T15:14:08.358Z,80.30
2018-11-26T15:16:36.910Z,80.40
2018-11-26T15:19:05.479Z,80.50
2018-11-26T15:21:33.985Z,80.80
2018-11-26T15:24:02.470Z,80.80
2018-11-26T15:26:30.948Z,81.00
2018-11-26T15:28:59.426Z,81.10
2018-11-26T15:31:28.136Z,81.20
2018-11-26T15:33:56.642Z,81.30
2018-11-26T15:36:25.139Z,81.30
2018-11-26T15:38:53.637Z,81.40
2018-11-26T15:41:22.350Z,81.40
2018-11-26T15:43:50.967Z,81.40
2018-11-26T15:46:19.596Z,81.40
2018-11-26T15:48:48.172Z,81.40
2018-11-26T15:51:16.696Z,81.40
2018-11-26T15:53:45.253Z,81.50
2018-11-26T15:56:13.919Z,81.60
2018-11-26T15:58:42.582Z,81.70
2018-11-26T16:01:11.196Z,81.80
2018-11-26T16:03:39.746Z,81.70
2018-11-26T16:06:08.288Z,81.60
2018-11-26T16:08:36.763Z,81.80
2018-11-26T16:11:05.284Z,81.80
2018-11-26T16:13:33.857Z,81.80
2018-11-26T16:16:02.369Z,81.80
2018-11-26T16:18:31.083Z,81.70
2018-11-26T16:20:59.576Z,81.60
2018-11-26T16:23:28.069Z,81.60
2018-11-26T16:25:56.565Z,81.60
2018-11-26T16:28:25.102Z,81.40
2018-11-26T16:30:53.632Z,81.60
2018-11-26T16:33:22.242Z,81.60
2018-11-26T16:35:50.774Z,81.50
2018-11-26T16:38:19.291Z,81.50
2018-11-26T16:40:47.799Z,81.40
2018-11-26T16:43:16.323Z,81.40
2018-11-26T16:45:44.784Z,81.30
2018-11-26T16:48:13.264Z,81.40
2018-11-26T16:50:41.801Z,81.60
2018-11-26T16:53:10.313Z,81.60
2018-11-26T16:55:38.964Z,81.70
2018-11-26T16:58:07.779Z,81.70
2018-11-26T17:00:36.287Z,81.80
2018-11-26T17:03:05.056Z,81.90
2018-11-26T17:05:35.764Z,82.00
2018-11-26T17:08:04.404Z,82.00
2018-11-26T17:10:32.873Z,82.10
2018-11-26T17:13:01.430Z,82.30
2018-11-26T17:15:30.055Z,82.60
2018-11-26T17:17:58.699Z,82.90
2018-11-26T17:20:27.259Z,83.20
2018-11-26T17:22:55.927Z,83.40
2018-11-26T17:25:24.424Z,83.70
2018-11-26T17:27:53.006Z,83.90
2018-11-26T17:30:24.198Z,84.00
2018-11-26T17:32:55.066Z,84.10
2018-11-26T17:35:23.833Z,84.10
2018-11-26T17:37:52.305Z,84.00
2018-11-26T17:40:23.073Z,84.10
2018-11-26T17:42:51.927Z,84.20
2018-11-26T17:45:21.016Z,84.10
2018-11-26T17:47:52.584Z,84.00
2018-11-26T17:50:22.416Z,84.00
2018-11-26T17:52:50.919Z,84.00
2018-11-26T17:55:19.468Z,84.00
2018-11-26T17:57:47.949Z,84.00
2018-11-26T18:00:18.350Z,84.00
2018-11-26T18:02:46.965Z,84.10
2018-11-26T18:05:17.828Z,85.00
2018-11-26T18:07:48.137Z,84.10
2018-11-26T18:10:16.789Z,85.20
2018-11-26T18:12:45.269Z,85.30
2018-11-26T18:15:14.889Z,85.20
2018-11-26T18:17:44.659Z,85.20
2018-11-26T18:20:15.456Z,85.80
2018-11-26T18:22:44.983Z,86.10
2018-11-26T18:25:13.807Z,86.80
2018-11-26T18:27:46.515Z,86.80
2018-11-26T18:30:16.926Z,86.80
2018-11-26T18:32:45.369Z,86.80
2018-11-26T18:35:14.383Z,86.90
2018-11-26T18:37:42.889Z,87.20
2018-11-26T18:40:13.854Z,87.60
2018-11-26T18:42:42.451Z,87.40
2018-11-26T18:45:13.504Z,87.50
2018-11-26T18:47:42.131Z,87.60
2018-11-26T18:50:15.230Z,87.50
2018-11-26T18:52:44.488Z,87.20
2018-11-26T18:55:13.051Z,87.10
2018-11-26T18:57:41.968Z,86.90
2018-11-26T19:00:18.764Z,86.90
2018-11-26T19:02:47.333Z,86.90
2018-11-26T19:05:16.642Z,86.90
2018-11-26T19:07:45.236Z,86.90
2018-11-26T19:10:16.992Z,87.10
2018-11-26T19:12:48.331Z,87.50
2018-11-26T19:15:19.163Z,87.90
2018-11-26T19:17:48.103Z,88.20
2018-11-26T19:20:16.620Z,88.50
2018-11-26T19:22:45.303Z,88.60
2018-11-26T19:25:15.622Z,88.70
2018-11-26T19:27:44.299Z,88.60
2018-11-26T19:30:14.132Z,88.60
2018-11-26T19:32:43.680Z,88.50
2018-11-26T19:35:13.441Z,88.60
2018-11-26T19:37:42.015Z,88.80
2018-11-26T19:40:12.944Z,88.70
2018-11-26T19:42:42.285Z,88.60
2018-11-26T19:45:16.820Z,88.50
2018-11-26T19:47:45.584Z,88.50
2018-11-26T19:50:19.309Z,88.30
2018-11-26T19:52:49.311Z,88.30
2018-11-26T19:55:23.248Z,88.30
2018-11-26T19:57:52.416Z,88.30
2018-11-26T20:00:23.344Z,88.30
2018-11-26T20:02:53.694Z,88.10
2018-11-26T20:05:29.016Z,88.00
2018-11-26T20:07:58.009Z,88.00
2018-11-26T20:10:26.620Z,88.00
2018-11-26T20:12:55.290Z,88.00
2018-11-26T20:15:23.951Z,87.90
2018-11-26T20:17:52.642Z,87.70
2018-11-26T20:20:21.279Z,87.60
2018-11-26T20:22:49.810Z,87.70
2018-11-26T20:25:18.442Z,87.80
2018-11-26T20:27:47.132Z,87.80
2018-11-26T20:30:16.007Z,87.70
2018-11-26T20:32:47.214Z,87.60
2018-11-26T20:35:15.797Z,87.60
2018-11-26T20:37:44.515Z,87.50
2018-11-26T20:40:14.942Z,87.50
2018-11-26T20:42:51.304Z,87.50
2018-11-26T20:45:19.829Z,87.30
2018-11-26T20:47:49.485Z,87.20
2018-11-26T20:50:23.587Z,87.30
2018-11-26T20:52:52.212Z,87.40
2018-11-26T20:55:21.913Z,87.40
2018-11-26T20:57:51.423Z,87.20
2018-11-26T21:00:21.231Z,87.20
2018-11-26T21:02:51.251Z,87.40
2018-11-26T21:05:19.889Z,87.40
2018-11-26T21:07:48.457Z,87.20
2018-11-26T21:10:17.157Z,87.10
2018-11-26T21:12:45.836Z,87.00
2018-11-26T21:15:17.033Z,87.00
2018-11-26T21:17:48.020Z,86.80
2018-11-26T21:20:23.035Z,87.00
2018-11-26T21:22:51.881Z,87.00
2018-11-26T21:25:20.397Z,86.80
2018-11-26T21:27:49.511Z,86.90
2018-11-26T21:30:19.189Z,87.00
2018-11-26T21:32:47.724Z,86.80
2018-11-26T21:35:17.392Z,87.00
2018-11-26T21:37:50.191Z,86.90
2018-11-26T21:40:21.082Z,86.90
2018-11-26T21:42:49.657Z,86.80
2018-11-26T21:45:22.337Z,86.80
2018-11-26T21:47:50.805Z,86.80
2018-11-26T21:50:19.312Z,86.80
2018-11-26T21:52:47.898Z,86.90
2018-11-26T21:55:17.665Z,87.00
2018-11-26T21:57:46.204Z,86.80
2018-11-26T22:00:21.464Z,86.70
2018-11-26T22:02:50.277Z,86.60
2018-11-26T22:05:19.086Z,86.60
2018-11-26T22:07:47.699Z,86.60
2018-11-26T22:10:18.483Z,86.60
2018-11-26T22:12:49.323Z,86.70
2018-11-26T22:15:17.928Z,86.70
2018-11-26T22:17:46.401Z,86.80
2018-11-26T22:20:25.634Z,86.80
2018-11-26T22:22:54.525Z,86.70
2018-11-26T22:25:23.044Z,87.40
2018-11-26T22:27:52.588Z,86.60
2018-11-26T22:30:36.428Z,86.40
2018-11-26T22:33:05.122Z,86.20
2018-11-26T22:35:33.668Z,86.10
2018-11-26T22:38:02.276Z,86.20
2018-11-26T22:40:30.911Z,86.20
2018-11-26T22:42:59.367Z,86.20
2018-11-26T22:45:31.350Z,86.20
2018-11-26T22:48:06.371Z,86.20
2018-11-26T22:50:35.669Z,86.20
2018-11-26T22:53:04.378Z,86.10
2018-11-26T22:55:32.885Z,86.60
2018-11-26T22:58:01.413Z,85.80
2018-11-26T23:00:37.769Z,85.50
2018-11-26T23:03:06.938Z,85.30
2018-11-26T23:05:36.046Z,85.30
2018-11-26T23:08:04.620Z,85.20
2018-11-26T23:10:33.237Z,85.20
2018-11-26T23:13:01.755Z,85.10
2018-11-26T23:15:30.541Z,85.00
2018-11-26T23:17:59.087Z,85.60
2018-11-26T23:20:27.672Z,84.60
2018-11-26T23:22:56.363Z,84.50
2018-11-26T23:25:24.862Z,84.30
2018-11-26T23:27:53.473Z,84.30
2018-11-26T23:30:24.028Z,84.30
2018-11-26T23:33:00.361Z,84.20
2018-11-26T23:35:29.021Z,84.10
2018-11-26T23:37:57.528Z,83.90
2018-11-26T23:40:26.382Z,84.90
2018-11-26T23:42:55.007Z,85.00
2018-11-26T23:45:26.294Z,85.00
2018-11-26T23:47:54.811Z,84.80
2018-11-26T23:50:23.332Z,84.70
2018-11-26T23:52:51.804Z,84.60
2018-11-26T23:55:21.554Z,84.50
2018-11-26T23:57:50.546Z,84.50
